Time;durP1;ratioP1;P1;durP2;ratioP2;P2;SDS_P1;SDS_P2;PMS_P1;PMS_P2;Temp;Humidity;BMP_temperature;BMP_pressure;BME280_temperature;BME280_humidity;BME280_pressure;Samples;Min_cycle;Max_cycle;Signal;HPM_P1;HPM_P2
2022/03/08 00:01:59;;;;;;;5.57;2.53;;;9.00;99.90;;;;;;5033805;28;20212;-92
2022/03/08 00:04:30;;;;;;;6.20;2.93;;;9.00;99.90;;;;;;5034821;28;20280;-91
2022/03/08 00:07:04;;;;;;;9.13;3.07;;;8.90;99.90;;;;;;5033966;28;20221;-95
2022/03/08 00:09:39;;;;;;;6.13;2.73;;;8.90;99.90;;;;;;5035556;28;20250;-92
2022/03/08 00:12:11;;;;;;;5.47;2.67;;;8.90;99.90;;;;;;5035175;28;20225;-92
2022/03/08 00:14:42;;;;;;;5.80;2.70;;;9.00;99.90;;;;;;5036841;28;20193;-92
2022/03/08 00:22:44;;;;;;;4.83;2.33;;;9.40;99.90;;;;;;5561578;23;20300;-92
2022/03/08 00:27:51;;;;;;;7.20;2.43;;;9.50;99.90;;;;;;5678806;22;20233;-94
2022/03/08 00:30:25;;;;;;;5.87;2.40;;;9.50;99.90;;;;;;5529189;22;20282;-93
2022/03/08 00:32:56;;;;;;;5.23;2.60;;;9.50;99.90;;;;;;5034324;28;20297;-94
2022/03/08 00:35:28;;;;;;;6.07;3.17;;;9.40;99.90;;;;;;5033103;28;20206;-92
2022/03/08 00:38:01;;;;;;;5.23;2.70;;;9.30;99.90;;;;;;5032428;28;20221;-93
2022/03/08 00:40:33;;;;;;;6.57;2.83;;;9.20;99.90;;;;;;5033025;28;20240;-93
2022/03/08 00:43:04;;;;;;;9.07;2.80;;;9.00;99.90;;;;;;5027878;28;20209;-93
2022/03/08 00:45:36;;;;;;;8.47;2.40;;;8.90;99.90;;;;;;5023098;28;20217;-95
2022/03/08 00:48:07;;;;;;;6.53;2.53;;;8.90;99.90;;;;;;5019498;28;20631;-94
2022/03/08 00:50:39;;;;;;;5.23;2.20;;;8.80;99.90;;;;;;5017827;28;20228;-93
2022/03/08 00:53:13;;;;;;;5.33;2.33;;;8.70;99.90;;;;;;5020645;28;20212;-94
2022/03/08 00:55:44;;;;;;;6.43;2.43;;;8.60;99.90;;;;;;5020356;28;20209;-93
2022/03/08 00:58:16;;;;;;;7.70;2.63;;;8.60;99.90;;;;;;5023573;28;20694;-93
2022/03/08 01:00:47;;;;;;;6.40;2.47;;;8.60;99.90;;;;;;5021221;28;20249;-92
2022/03/08 01:03:19;;;;;;;7.83;2.67;;;8.60;99.90;;;;;;5018417;28;20687;-93
2022/03/08 01:05:50;;;;;;;8.70;2.30;;;8.50;99.90;;;;;;5019013;28;20439;-94
2022/03/08 01:08:23;;;;;;;9.30;2.40;;;8.40;99.90;;;;;;5016913;28;20259;-93
2022/03/08 01:10:55;;;;;;;8.10;2.70;;;8.40;99.90;;;;;;5018123;28;20202;-92
2022/03/08 01:13:25;;;;;;;6.63;2.80;;;8.40;99.90;;;;;;5027861;28;20232;-93
2022/03/08 01:15:56;;;;;;;7.50;3.07;;;8.30;99.90;;;;;;5037202;28;20197;-93
2022/03/08 01:18:28;;;;;;;7.07;2.60;;;8.30;99.90;;;;;;5035128;28;20280;-93
2022/03/08 01:21:00;;;;;;;6.73;3.10;;;8.30;99.90;;;;;;5036272;28;20220;-92
2022/03/08 01:23:33;;;;;;;6.67;2.70;;;8.10;99.90;;;;;;5035881;28;20209;-93
2022/03/08 01:31:16;;;;;;;6.10;2.77;;;7.90;99.90;;;;;;5029145;28;20207;-93
2022/03/08 01:33:49;;;;;;;8.33;3.03;;;8.00;99.90;;;;;;5019689;28;20252;-94
2022/03/08 01:36:21;;;;;;;7.43;3.00;;;7.90;99.90;;;;;;5029657;28;20215;-92
2022/03/08 01:38:54;;;;;;;8.00;3.07;;;7.80;99.90;;;;;;5023576;28;20729;-93
2022/03/08 01:41:25;;;;;;;9.93;3.57;;;7.70;99.90;;;;;;5020552;28;20214;-94
2022/03/08 01:43:57;;;;;;;8.73;3.33;;;7.60;99.90;;;;;;5023821;28;20248;-92
2022/03/08 01:46:28;;;;;;;5.73;2.67;;;7.60;99.90;;;;;;5020536;28;20237;-92
2022/03/08 01:49:00;;;;;;;8.87;2.97;;;7.60;99.90;;;;;;5020317;28;20243;-93
2022/03/08 01:51:31;;;;;;;6.77;3.50;;;7.50;99.90;;;;;;5023431;28;20301;-94
2022/03/08 01:54:05;;;;;;;8.80;3.00;;;7.50;99.90;;;;;;5020259;28;20292;-94
2022/03/08 01:56:37;;;;;;;8.90;2.87;;;7.50;99.90;;;;;;5020013;28;20240;-94
2022/03/08 01:59:08;;;;;;;7.97;3.20;;;7.40;99.90;;;;;;5022362;28;20274;-94
2022/03/08 02:01:40;;;;;;;7.33;2.53;;;7.40;99.90;;;;;;5018680;28;20229;-92
2022/03/08 02:04:12;;;;;;;5.53;2.77;;;7.30;99.90;;;;;;5018060;28;20207;-94
2022/03/08 02:06:45;;;;;;;7.57;3.13;;;7.20;99.90;;;;;;5018613;28;20237;-94
2022/03/08 02:09:18;;;;;;;6.17;3.00;;;7.20;99.90;;;;;;5018914;28;20241;-94
2022/03/08 02:11:50;;;;;;;7.10;3.10;;;7.10;99.90;;;;;;5019219;28;20237;-92
2022/03/08 02:14:22;;;;;;;9.47;3.57;;;7.10;99.90;;;;;;5018815;28;20269;-93
2022/03/08 02:16:53;;;;;;;8.13;3.20;;;7.00;99.90;;;;;;5018889;28;20663;-94
2022/03/08 02:19:24;;;;;;;6.37;3.40;;;7.00;99.90;;;;;;5026095;28;20241;-94
2022/03/08 02:21:57;;;;;;;9.63;3.23;;;6.90;99.90;;;;;;5033000;28;20229;-93
2022/03/08 02:24:28;;;;;;;9.43;3.03;;;6.90;99.90;;;;;;5031556;28;20237;-93
2022/03/08 02:27:00;;;;;;;7.20;3.33;;;6.80;99.90;;;;;;5024950;28;20634;-93
2022/03/08 02:29:31;;;;;;;10.60;3.43;;;6.70;99.90;;;;;;5032887;28;20255;-94
2022/03/08 02:32:02;;;;;;;10.67;3.53;;;6.70;99.90;;;;;;5032778;28;20304;-92
2022/03/08 02:34:34;;;;;;;7.17;3.10;;;6.70;99.90;;;;;;5033110;28;20209;-91
2022/03/08 02:37:11;;;;;;;6.60;3.17;;;6.60;99.90;;;;;;5033708;28;20236;-93
2022/03/08 02:39:44;;;;;;;4.80;3.13;;;6.60;99.90;;;;;;5036003;28;20237;-93
2022/03/08 02:42:17;;;;;;;7.97;3.03;;;6.60;99.90;;;;;;5036098;28;20236;-94
2022/03/08 02:44:48;;;;;;;9.47;3.63;;;6.50;99.90;;;;;;5034823;28;20196;-93
2022/03/08 02:47:21;;;;;;;7.00;3.20;;;6.40;99.90;;;;;;5034092;28;20273;-93
2022/03/08 02:49:54;;;;;;;6.83;2.93;;;6.40;99.90;;;;;;5032901;28;20620;-93
2022/03/08 02:52:27;;;;;;;12.37;4.00;;;6.30;99.90;;;;;;5033822;28;20217;-93
2022/03/08 02:54:59;;;;;;;9.60;3.13;;;6.30;99.90;;;;;;5033512;28;20219;-92
2022/03/08 02:57:32;;;;;;;11.03;3.33;;;6.20;99.90;;;;;;5032178;28;20210;-93
2022/03/08 03:00:08;;;;;;;13.80;3.77;;;6.20;99.90;;;;;;5033671;28;20213;-93
2022/03/08 03:02:39;;;;;;;10.40;3.27;;;6.20;99.90;;;;;;5033555;28;20208;-93
2022/03/08 03:05:12;;;;;;;7.13;3.37;;;6.10;99.90;;;;;;5032622;28;20217;-92
2022/03/08 03:07:50;;;;;;;8.57;3.37;;;6.10;99.90;;;;;;5032923;28;20236;-94
2022/03/08 03:10:39;;;;;;;;;;;;;;;;;;;;;
2022/03/08 03:13:08;;;;;;;7.23;3.50;;;6.00;99.90;;;;;;5531596;23;20244;-92
2022/03/08 03:15:40;;;;;;;5.40;3.10;;;5.90;99.90;;;;;;5059731;28;20213;-93
2022/03/08 03:18:12;;;;;;;8.83;3.30;;;5.90;99.90;;;;;;5059024;28;20201;-92
2022/03/08 03:20:45;;;;;;;8.13;3.73;;;5.80;99.90;;;;;;5059573;28;20216;-92
2022/03/08 03:26:01;;;;;;;9.63;3.53;;;5.70;99.90;;;;;;5086163;22;20287;-92
2022/03/08 03:28:33;;;;;;;7.57;3.53;;;5.70;99.90;;;;;;5058802;28;20224;-93
2022/03/08 03:36:18;;;;;;;9.77;3.70;;;5.60;99.90;;;;;;5036762;28;20197;-92
2022/03/08 03:44:10;;;;;;;7.60;3.80;;;5.50;99.90;;;;;;5220655;22;20232;-93
2022/03/08 03:46:42;;;;;;;9.77;4.07;;;5.50;99.90;;;;;;5059020;28;20188;-93
2022/03/08 03:49:15;;;;;;;8.37;3.87;;;5.40;99.90;;;;;;5058587;28;20239;-93
2022/03/08 03:51:47;;;;;;;8.17;3.63;;;5.40;99.90;;;;;;5058877;28;20635;-92
2022/03/08 03:54:18;;;;;;;8.93;3.57;;;5.30;99.90;;;;;;5425840;22;20244;-91
2022/03/08 03:56:50;;;;;;;4.97;3.40;;;5.30;99.90;;;;;;5135184;22;20232;-92
2022/03/08 03:59:24;;;;;;;13.53;3.50;;;5.20;99.90;;;;;;5057568;28;20201;-94
2022/03/08 04:01:57;;;;;;;8.23;3.40;;;5.20;99.90;;;;;;5054300;28;20205;-93
2022/03/08 04:04:28;;;;;;;7.97;3.70;;;5.20;99.90;;;;;;5055370;28;20208;-92
2022/03/08 04:07:00;;;;;;;6.90;3.23;;;5.20;99.90;;;;;;5053449;28;20208;-93
2022/03/08 04:09:31;;;;;;;8.23;3.93;;;5.10;99.90;;;;;;5055242;28;20286;-92
2022/03/08 04:12:02;;;;;;;8.03;3.80;;;5.10;99.90;;;;;;5053374;28;20271;-92
2022/03/08 04:14:36;;;;;;;9.20;4.97;;;5.10;99.90;;;;;;5052928;28;20236;-93
2022/03/08 04:17:07;;;;;;;10.10;4.40;;;5.10;99.90;;;;;;5052388;28;20205;-93
2022/03/08 04:19:40;;;;;;;13.20;4.57;;;5.20;99.90;;;;;;5052431;28;20213;-93
2022/03/08 04:22:12;;;;;;;8.47;4.73;;;5.20;99.90;;;;;;5052940;28;20200;-93
2022/03/08 04:24:44;;;;;;;8.90;4.67;;;5.40;99.90;;;;;;5036328;28;20217;-93
2022/03/08 04:27:15;;;;;;;11.70;4.97;;;5.40;99.90;;;;;;5031086;28;20198;-91
2022/03/08 04:29:50;;;;;;;9.13;3.93;;;5.50;99.90;;;;;;5031882;28;20253;-92
2022/03/08 04:32:22;;;;;;;10.73;4.50;;;5.60;99.90;;;;;;5032520;28;20706;-93
2022/03/08 04:34:54;;;;;;;9.10;4.77;;;5.60;99.90;;;;;;5034215;28;20202;-93
2022/03/08 04:37:27;;;;;;;11.37;4.87;;;5.70;99.90;;;;;;5036243;28;20201;-93
2022/03/08 04:39:59;;;;;;;12.73;4.70;;;5.70;99.90;;;;;;5031028;28;20205;-93
2022/03/08 04:42:30;;;;;;;10.00;4.47;;;5.60;99.90;;;;;;5046810;28;20248;-92
2022/03/08 04:45:05;;;;;;;10.37;4.50;;;5.60;99.90;;;;;;5051852;28;20201;-93
2022/03/08 04:47:37;;;;;;;10.17;4.57;;;5.60;99.90;;;;;;5228320;22;20299;-92
2022/03/08 04:50:11;;;;;;;8.37;4.10;;;5.70;99.90;;;;;;5036482;28;20213;-93
2022/03/08 04:52:45;;;;;;;10.67;4.23;;;5.60;99.90;;;;;;5033823;28;20205;-93
2022/03/08 04:55:16;;;;;;;9.77;4.00;;;5.60;99.90;;;;;;5013414;28;20225;-93
2022/03/08 04:57:48;;;;;;;12.23;4.67;;;5.60;99.90;;;;;;5012432;28;20210;-93
2022/03/08 05:00:27;;;;;;;7.80;4.23;;;5.60;99.90;;;;;;5011450;28;20213;-93
2022/03/08 05:02:58;;;;;;;9.70;4.63;;;5.60;99.90;;;;;;5011574;28;20228;-93
2022/03/08 05:05:32;;;;;;;7.60;3.30;;;5.60;99.90;;;;;;5009994;28;20194;-93
2022/03/08 05:08:03;;;;;;;12.07;4.40;;;5.70;99.90;;;;;;5010918;28;20207;-92
2022/03/08 05:10:35;;;;;;;8.60;3.80;;;5.70;99.90;;;;;;5199739;22;20232;-93
2022/03/08 05:13:08;;;;;;;8.03;3.37;;;5.70;99.90;;;;;;5052273;28;20205;-92
2022/03/08 05:15:41;;;;;;;8.10;3.80;;;5.70;99.90;;;;;;5050843;28;20227;-91
2022/03/08 05:18:11;;;;;;;9.40;4.13;;;5.70;99.90;;;;;;5049007;28;20209;-93
2022/03/08 05:20:42;;;;;;;9.13;4.40;;;5.70;99.90;;;;;;5051716;28;20216;-91
2022/03/08 05:23:14;;;;;;;8.73;4.00;;;5.70;99.90;;;;;;5050642;28;20216;-92
2022/03/08 05:25:46;;;;;;;12.83;5.10;;;5.70;99.90;;;;;;5052282;28;20204;-92
2022/03/08 05:28:17;;;;;;;10.30;5.17;;;5.70;99.90;;;;;;5051908;28;20201;-93
2022/03/08 05:30:52;;;;;;;14.47;5.23;;;5.70;99.90;;;;;;5050499;28;20259;-93
2022/03/08 05:33:24;;;;;;;8.07;4.57;;;5.60;99.90;;;;;;5051240;28;20220;-93
2022/03/08 05:35:56;;;;;;;8.23;4.53;;;5.60;99.90;;;;;;5052515;28;20215;-93
2022/03/08 05:38:27;;;;;;;8.90;4.27;;;5.60;99.90;;;;;;5049882;28;20198;-92
2022/03/08 05:40:59;;;;;;;9.03;4.30;;;5.70;99.90;;;;;;5052496;28;20197;-91
2022/03/08 05:43:32;;;;;;;10.57;4.03;;;5.60;99.90;;;;;;5053672;28;20216;-92
2022/03/08 05:46:05;;;;;;;8.83;4.20;;;5.70;99.90;;;;;;5406993;22;20245;-92
2022/03/08 05:51:13;;;;;;;9.33;3.73;;;5.70;99.90;;;;;;5587182;22;20228;-84
2022/03/08 05:53:44;;;;;;;8.93;3.30;;;5.80;99.90;;;;;;5321063;22;20303;-94
2022/03/08 05:56:16;;;;;;;12.97;4.00;;;5.80;99.90;;;;;;5051854;28;20323;-92
2022/03/08 05:58:49;;;;;;;7.60;4.20;;;5.80;99.90;;;;;;5052767;28;20204;-92
2022/03/08 06:01:24;;;;;;;7.70;3.67;;;5.90;99.90;;;;;;5045870;28;20209;-93
2022/03/08 06:03:57;;;;;;;9.20;4.50;;;5.90;99.90;;;;;;5039723;28;20227;-91
2022/03/08 06:06:31;;;;;;;7.47;3.60;;;5.90;99.90;;;;;;5047156;28;20696;-93
2022/03/08 06:09:02;;;;;;;10.90;3.93;;;6.00;99.90;;;;;;5040184;28;20204;-92
2022/03/08 06:11:33;;;;;;;8.10;3.87;;;6.00;99.90;;;;;;5042903;28;20277;-94
2022/03/08 06:14:05;;;;;;;8.27;3.60;;;6.10;99.90;;;;;;5042004;28;20182;-93
2022/03/08 06:16:38;;;;;;;9.80;3.30;;;6.20;99.90;;;;;;5039757;28;20210;-92
2022/03/08 06:19:09;;;;;;;8.70;3.80;;;6.20;99.90;;;;;;5037132;28;20205;-93
2022/03/08 06:21:40;;;;;;;9.97;3.37;;;6.20;99.90;;;;;;5037105;28;20220;-92
2022/03/08 06:24:13;;;;;;;10.77;3.77;;;6.30;99.90;;;;;;5040212;28;20220;-93
2022/03/08 06:26:44;;;;;;;5.63;3.03;;;6.20;99.90;;;;;;5039591;28;20205;-92
2022/03/08 06:29:18;;;;;;;6.73;3.17;;;6.20;99.90;;;;;;5038785;28;20733;-92
2022/03/08 06:31:52;;;;;;;10.47;4.03;;;6.20;99.90;;;;;;5050916;28;20304;-92
2022/03/08 06:34:23;;;;;;;9.43;3.33;;;6.20;99.90;;;;;;5050931;28;20247;-92
2022/03/08 06:36:55;;;;;;;14.60;3.70;;;6.20;99.90;;;;;;5051129;28;20205;-92
2022/03/08 06:39:26;;;;;;;6.70;3.13;;;6.20;99.90;;;;;;5052770;28;20250;-93
2022/03/08 06:41:58;;;;;;;10.77;4.03;;;6.20;99.90;;;;;;5045436;28;20327;-92
2022/03/08 06:44:29;;;;;;;9.17;3.57;;;6.20;99.90;;;;;;5049841;28;20235;-93
2022/03/08 06:47:02;;;;;;;6.43;3.53;;;6.20;99.90;;;;;;5046303;28;20219;-92
2022/03/08 06:49:34;;;;;;;8.13;2.77;;;6.20;99.90;;;;;;5044325;28;20225;-93
2022/03/08 06:52:06;;;;;;;10.50;3.83;;;6.10;99.90;;;;;;5046270;28;20243;-93
2022/03/08 06:54:37;;;;;;;7.30;3.50;;;6.10;99.90;;;;;;5052004;28;20213;-93
2022/03/08 06:57:10;;;;;;;7.63;3.30;;;6.10;99.90;;;;;;5039725;28;20312;-92
2022/03/08 06:59:41;;;;;;;8.47;3.70;;;6.20;99.90;;;;;;5043551;28;20201;-93
2022/03/08 07:02:13;;;;;;;7.87;3.60;;;6.10;99.90;;;;;;5040491;28;20908;-93
2022/03/08 07:04:45;;;;;;;8.37;3.70;;;6.10;99.90;;;;;;5039080;28;20201;-93
2022/03/08 07:07:16;;;;;;;9.13;3.60;;;6.10;99.90;;;;;;5042955;28;20634;-91
2022/03/08 07:09:48;;;;;;;7.47;4.33;;;6.10;99.90;;;;;;5028812;28;20693;-94
2022/03/08 07:12:19;;;;;;;8.93;3.83;;;6.00;99.90;;;;;;5021487;28;20213;-93
2022/03/08 07:14:50;;;;;;;9.70;4.07;;;6.00;99.90;;;;;;5020442;28;20210;-94
2022/03/08 07:17:23;;;;;;;9.57;4.03;;;6.00;99.90;;;;;;5019522;28;20267;-93
2022/03/08 07:19:55;;;;;;;11.07;3.97;;;6.00;99.90;;;;;;5019603;28;20286;-92
2022/03/08 07:22:27;;;;;;;8.17;3.97;;;6.00;99.90;;;;;;5020047;28;20237;-92
2022/03/08 07:25:00;;;;;;;11.63;3.90;;;6.00;99.90;;;;;;5037451;28;20563;-93
2022/03/08 07:27:32;;;;;;;10.60;4.00;;;6.00;99.90;;;;;;5037751;28;20207;-94
2022/03/08 07:30:04;;;;;;;7.03;3.83;;;6.00;99.90;;;;;;5046712;28;20252;-93
2022/03/08 07:32:37;;;;;;;13.57;4.07;;;6.00;99.90;;;;;;5038582;28;20201;-91
2022/03/08 07:35:10;;;;;;;10.53;3.93;;;6.00;99.90;;;;;;5037889;28;20224;-92
2022/03/08 07:37:42;;;;;;;6.33;3.50;;;6.10;99.90;;;;;;5038874;28;20559;-92
2022/03/08 07:40:14;;;;;;;6.77;3.67;;;6.10;99.90;;;;;;5039591;28;20623;-92
2022/03/08 07:42:45;;;;;;;9.40;4.23;;;6.10;99.90;;;;;;5040407;28;20225;-93
2022/03/08 07:45:17;;;;;;;11.63;4.73;;;6.10;99.90;;;;;;5042219;28;20236;-91
2022/03/08 07:47:53;;;;;;;7.33;4.73;;;6.10;99.90;;;;;;5045537;28;20209;-91
2022/03/08 07:50:25;;;;;;;6.77;4.10;;;6.20;99.90;;;;;;5057006;28;20216;-92
2022/03/08 07:52:59;;;;;;;16.07;4.40;;;6.30;99.90;;;;;;5057910;28;20189;-92
2022/03/08 07:55:34;;;;;;;11.17;5.00;;;6.40;99.90;;;;;;5058129;28;20192;-94
2022/03/08 07:58:11;;;;;;;14.67;5.13;;;6.40;99.90;;;;;;5057553;28;20235;-93
2022/03/08 08:00:44;;;;;;;14.33;4.30;;;6.40;99.90;;;;;;5057192;28;20208;-93
2022/03/08 08:03:18;;;;;;;11.90;4.80;;;6.40;99.90;;;;;;5058582;28;20214;-92
2022/03/08 08:05:49;;;;;;;12.70;5.00;;;6.50;99.90;;;;;;5057642;28;20193;-93
2022/03/08 08:08:21;;;;;;;10.90;4.07;;;6.50;99.90;;;;;;5054782;28;20239;-93
2022/03/08 08:10:53;;;;;;;12.07;4.97;;;6.40;99.90;;;;;;5037890;28;20270;-92
2022/03/08 08:13:24;;;;;;;8.40;4.20;;;6.50;99.90;;;;;;5041289;28;20209;-92
2022/03/08 08:15:56;;;;;;;10.30;4.37;;;6.50;99.90;;;;;;5036657;28;20213;-93
2022/03/08 08:18:28;;;;;;;8.20;4.57;;;6.50;99.90;;;;;;5036559;28;20267;-93
2022/03/08 08:21:01;;;;;;;12.40;5.27;;;6.50;99.90;;;;;;5036766;28;20293;-93
2022/03/08 08:23:33;;;;;;;12.50;4.90;;;6.50;99.90;;;;;;5036566;28;20208;-92
2022/03/08 08:26:04;;;;;;;10.67;4.60;;;6.40;99.90;;;;;;5020836;28;20209;-92
2022/03/08 08:28:35;;;;;;;9.13;4.47;;;6.40;99.90;;;;;;5049087;28;20212;-92
2022/03/08 08:31:06;;;;;;;10.97;4.83;;;6.40;99.90;;;;;;5038517;28;20221;-93
2022/03/08 08:33:40;;;;;;;8.33;4.57;;;6.40;99.90;;;;;;5037166;28;20205;-93
2022/03/08 08:36:12;;;;;;;10.93;4.70;;;6.40;99.90;;;;;;5039998;28;20201;-93
2022/03/08 08:38:43;;;;;;;10.47;5.27;;;6.40;99.90;;;;;;5036836;28;20209;-91
2022/03/08 08:41:14;;;;;;;13.17;4.90;;;6.40;99.90;;;;;;5044379;28;20239;-94
2022/03/08 08:43:46;;;;;;;15.43;5.37;;;6.50;99.90;;;;;;5046607;28;20208;-93
2022/03/08 08:46:18;;;;;;;16.30;5.60;;;6.50;99.90;;;;;;5037043;28;20197;-93
2022/03/08 08:48:50;;;;;;;12.13;5.00;;;6.50;99.90;;;;;;5037752;28;20574;-93
2022/03/08 08:51:21;;;;;;;12.57;4.70;;;6.60;99.90;;;;;;5034919;28;20232;-93
2022/03/08 08:53:52;;;;;;;13.00;5.10;;;6.50;99.90;;;;;;5035985;28;20220;-91
2022/03/08 08:56:23;;;;;;;10.63;4.97;;;6.60;99.90;;;;;;5037080;28;20297;-92
2022/03/08 08:58:54;;;;;;;12.53;4.67;;;6.60;99.90;;;;;;5036301;28;20296;-93
2022/03/08 09:01:25;;;;;;;13.13;4.83;;;6.60;99.90;;;;;;5039443;28;20217;-92
2022/03/08 09:03:59;;;;;;;11.83;4.27;;;6.60;99.90;;;;;;5042248;28;20685;-92
2022/03/08 09:06:30;;;;;;;8.87;5.00;;;6.60;99.90;;;;;;5038883;28;20209;-93
2022/03/08 09:09:02;;;;;;;13.40;4.50;;;6.70;99.90;;;;;;5055036;28;20193;-93
2022/03/08 09:11:38;;;;;;;10.43;5.07;;;6.70;99.90;;;;;;5054486;28;20240;-93
2022/03/08 09:14:09;;;;;;;14.40;5.30;;;6.60;99.90;;;;;;5054425;28;20214;-93
2022/03/08 09:16:40;;;;;;;12.97;4.63;;;6.70;99.90;;;;;;5046264;28;20220;-91
2022/03/08 09:19:14;;;;;;;12.23;4.73;;;6.60;99.90;;;;;;5045054;28;20209;-92
2022/03/08 09:21:44;;;;;;;13.90;5.10;;;6.60;99.90;;;;;;5043441;28;20693;-93
2022/03/08 09:24:16;;;;;;;13.70;5.13;;;6.60;99.90;;;;;;5036768;28;20295;-93
2022/03/08 09:26:47;;;;;;;10.97;4.87;;;6.60;99.90;;;;;;5035680;28;20235;-93
2022/03/08 09:29:18;;;;;;;14.67;5.07;;;6.60;99.90;;;;;;5035307;28;20918;-92
2022/03/08 09:31:52;;;;;;;12.60;5.00;;;6.70;99.90;;;;;;5035993;28;20303;-93
2022/03/08 09:34:25;;;;;;;11.70;4.93;;;6.70;99.90;;;;;;5036100;28;20211;-93
2022/03/08 09:36:57;;;;;;;11.37;4.90;;;6.70;99.90;;;;;;5035090;28;20204;-91
2022/03/08 09:39:28;;;;;;;10.73;4.30;;;6.70;99.90;;;;;;5035111;28;20632;-91
2022/03/08 09:42:00;;;;;;;12.30;4.20;;;6.60;99.90;;;;;;5035616;28;20205;-93
2022/03/08 09:44:32;;;;;;;12.50;4.57;;;6.60;99.90;;;;;;5035652;28;20240;-93
2022/03/08 09:47:05;;;;;;;16.57;4.40;;;6.60;99.90;;;;;;5037616;28;20213;-92
2022/03/08 09:49:39;;;;;;;13.30;4.70;;;6.60;99.90;;;;;;5034589;28;20212;-93
2022/03/08 09:52:10;;;;;;;9.47;3.93;;;6.60;99.90;;;;;;5038298;28;20264;-93
2022/03/08 09:54:44;;;;;;;10.33;4.20;;;6.70;99.90;;;;;;5037953;28;20225;-92
2022/03/08 09:57:29;;;;;;;10.13;3.77;;;6.70;99.90;;;;;;5036365;28;20208;-92
2022/03/08 10:00:00;;;;;;;13.70;4.60;;;6.60;99.90;;;;;;5039028;28;20258;-94
2022/03/08 10:02:47;;;;;;;15.30;4.90;;;6.60;99.90;;;;;;5040238;28;20643;-94
2022/03/08 10:05:24;;;;;;;11.33;4.30;;;6.60;99.90;;;;;;5039415;28;20201;-91
2022/03/08 10:08:08;;;;;;;9.00;4.03;;;6.60;99.90;;;;;;5038876;28;20713;-92
2022/03/08 10:10:52;;;;;;;11.83;4.43;;;6.50;99.90;;;;;;5038893;28;20212;-92
2022/03/08 10:13:26;;;;;;;12.90;4.37;;;6.60;99.90;;;;;;5040008;28;20336;-93
2022/03/08 10:16:11;;;;;;;16.33;4.20;;;6.60;99.90;;;;;;5059595;28;20202;-93
2022/03/08 10:18:45;;;;;;;11.90;4.60;;;6.50;99.90;;;;;;5058530;28;20222;-92
2022/03/08 10:21:32;;;;;;;12.13;4.33;;;6.50;99.90;;;;;;5046508;28;20208;-92
2022/03/08 10:24:05;;;;;;;16.17;5.23;;;6.50;99.90;;;;;;5045520;28;20244;-92
2022/03/08 10:26:49;;;;;;;11.77;4.20;;;6.50;99.90;;;;;;5049039;28;20203;-93
2022/03/08 10:29:25;;;;;;;14.07;4.67;;;6.40;99.90;;;;;;5039695;28;20248;-93
2022/03/08 10:32:10;;;;;;;16.57;5.00;;;6.40;99.90;;;;;;5041714;28;20220;-92
2022/03/08 10:34:42;;;;;;;14.37;4.80;;;6.40;99.90;;;;;;5039504;28;20626;-93
2022/03/08 10:37:20;;;;;;;10.20;5.00;;;6.40;99.90;;;;;;5039694;28;20241;-92
2022/03/08 10:39:53;;;;;;;13.33;5.20;;;6.40;99.90;;;;;;5039174;28;20217;-92
2022/03/08 10:42:26;;;;;;;14.47;4.53;;;6.40;99.90;;;;;;5035835;28;20287;-92
2022/03/08 10:45:03;;;;;;;15.53;4.67;;;6.40;99.90;;;;;;5039443;28;20304;-93
2022/03/08 10:47:41;;;;;;;16.70;4.87;;;6.40;99.90;;;;;;5037955;28;20209;-92
2022/03/08 10:50:14;;;;;;;12.70;4.23;;;6.40;99.90;;;;;;5040167;28;20255;-92
2022/03/08 10:52:49;;;;;;;9.77;4.80;;;6.40;99.90;;;;;;5037302;28;20264;-93
2022/03/08 10:55:22;;;;;;;12.27;4.30;;;6.40;99.90;;;;;;5019933;28;20224;-93
2022/03/08 10:57:57;;;;;;;14.17;5.07;;;6.40;99.90;;;;;;5025604;28;20237;-93
2022/03/08 11:00:31;;;;;;;13.07;4.40;;;6.30;99.90;;;;;;5018372;28;20957;-92
2022/03/08 11:03:05;;;;;;;13.37;3.97;;;6.30;99.90;;;;;;5019888;28;20214;-92
2022/03/08 11:05:37;;;;;;;9.37;4.67;;;6.30;99.90;;;;;;5018159;28;20202;-94
2022/03/08 11:08:11;;;;;;;15.80;4.50;;;6.40;99.90;;;;;;5024259;28;20694;-92
2022/03/08 11:10:43;;;;;;;11.83;4.80;;;6.40;99.90;;;;;;5035742;28;20212;-92
2022/03/08 11:13:16;;;;;;;17.17;4.37;;;6.40;99.90;;;;;;5036507;28;20264;-93
2022/03/08 11:15:48;;;;;;;13.53;4.47;;;6.40;99.90;;;;;;5036857;28;20209;-93
2022/03/08 11:18:20;;;;;;;13.93;4.40;;;6.40;99.90;;;;;;5036230;28;20292;-92
2022/03/08 11:20:51;;;;;;;12.63;3.87;;;6.30;99.90;;;;;;5037394;28;20244;-94
2022/03/08 11:23:25;;;;;;;13.83;4.17;;;6.30;99.90;;;;;;5036859;28;20212;-93
2022/03/08 11:25:57;;;;;;;13.37;4.37;;;6.40;99.90;;;;;;5040360;28;20197;-92
2022/03/08 11:28:33;;;;;;;14.07;4.17;;;6.30;99.90;;;;;;5035324;28;20211;-93
2022/03/08 11:31:04;;;;;;;8.27;3.67;;;6.30;99.90;;;;;;5037572;28;20212;-93
2022/03/08 11:33:45;;;;;;;11.10;4.00;;;6.20;99.90;;;;;;5037637;28;20699;-93
2022/03/08 11:36:23;;;;;;;13.20;4.40;;;6.20;99.90;;;;;;5037875;28;20208;-93
2022/03/08 11:39:30;;;;;;;10.47;3.70;;;6.20;99.90;;;;;;5036387;28;20211;-92
2022/03/08 11:42:26;;;;;;;11.43;4.20;;;6.20;99.90;;;;;;4999483;28;20238;-93
2022/03/08 11:44:59;;;;;;;11.53;3.43;;;6.20;99.90;;;;;;4995971;28;20245;-92
2022/03/08 11:47:48;;;;;;;12.17;3.87;;;6.20;99.90;;;;;;5024044;28;20205;-91
2022/03/08 11:50:23;;;;;;;8.73;3.70;;;6.20;99.90;;;;;;5036564;28;20244;-93
2022/03/08 11:53:07;;;;;;;10.90;4.13;;;6.20;99.90;;;;;;5036226;28;20319;-91
2022/03/08 11:55:41;;;;;;;16.00;4.87;;;6.20;99.90;;;;;;5036538;28;20655;-93
2022/03/08 11:58:13;;;;;;;10.63;3.67;;;6.20;99.90;;;;;;5035566;28;20222;-92
2022/03/08 12:00:46;;;;;;;9.83;4.03;;;6.20;99.90;;;;;;5036196;28;20616;-93
2022/03/08 12:03:37;;;;;;;12.90;4.20;;;6.20;99.90;;;;;;5035757;28;20274;-93
2022/03/08 12:06:10;;;;;;;18.33;4.70;;;6.20;99.90;;;;;;5036965;28;20275;-94
2022/03/08 12:08:46;;;;;;;12.93;4.67;;;6.20;99.90;;;;;;5035783;28;20283;-93
2022/03/08 12:11:36;;;;;;;15.10;4.23;;;6.20;99.90;;;;;;5035956;28;20224;-93
2022/03/08 12:14:26;;;;;;;9.90;3.90;;;6.30;99.90;;;;;;5039216;28;20239;-91
2022/03/08 12:17:12;;;;;;;13.03;4.40;;;6.30;99.90;;;;;;5036948;28;20229;-93
2022/03/08 12:19:46;;;;;;;12.33;4.50;;;6.20;99.90;;;;;;5036643;28;20212;-93
2022/03/08 12:22:18;;;;;;;9.73;4.07;;;6.20;99.90;;;;;;5036771;28;20287;-92
2022/03/08 12:24:51;;;;;;;9.77;3.97;;;6.20;99.90;;;;;;5036965;28;20292;-92
2022/03/08 12:27:26;;;;;;;11.47;4.03;;;6.20;99.90;;;;;;5036313;28;20227;-93
2022/03/08 12:32:42;;;;;;;7.90;3.70;;;6.20;99.90;;;;;;5077336;22;20241;-91
2022/03/08 12:35:21;;;;;;;12.20;4.10;;;6.20;99.90;;;;;;5037294;28;20347;-93
2022/03/08 12:37:54;;;;;;;18.83;4.97;;;6.20;99.90;;;;;;5035270;28;20193;-92
2022/03/08 12:40:31;;;;;;;11.13;3.93;;;6.20;99.90;;;;;;5019574;28;20233;-93
2022/03/08 12:43:07;;;;;;;13.33;5.17;;;6.10;99.90;;;;;;5017250;28;20255;-92
2022/03/08 12:45:48;;;;;;;8.53;3.93;;;6.10;99.90;;;;;;5015822;28;20214;-92
2022/03/08 12:48:23;;;;;;;20.27;5.47;;;6.10;99.90;;;;;;5014798;28;20244;-94
2022/03/08 12:50:56;;;;;;;14.07;5.83;;;6.10;99.90;;;;;;5015766;28;20236;-93
2022/03/08 12:53:30;;;;;;;11.93;4.53;;;6.10;99.90;;;;;;5015567;28;20232;-93
2022/03/08 12:56:03;;;;;;;21.00;5.13;;;6.00;99.90;;;;;;5015434;28;20275;-93
2022/03/08 12:58:39;;;;;;;12.97;4.37;;;6.00;99.90;;;;;;5015967;28;20213;-93
2022/03/08 13:01:11;;;;;;;18.87;4.83;;;6.00;99.90;;;;;;5021146;28;20208;-93
2022/03/08 13:03:45;;;;;;;14.73;4.87;;;6.00;99.90;;;;;;5016379;28;20235;-92
2022/03/08 13:06:17;;;;;;;14.57;5.40;;;5.90;99.90;;;;;;5016576;28;20216;-93
2022/03/08 13:08:48;;;;;;;18.30;5.13;;;6.00;99.90;;;;;;5015068;28;20213;-93
2022/03/08 13:11:21;;;;;;;14.03;4.60;;;6.00;99.90;;;;;;5015609;28;20209;-92
2022/03/08 13:13:57;;;;;;;11.17;4.93;;;6.00;99.90;;;;;;5015316;28;20269;-92
2022/03/08 13:16:29;;;;;;;16.20;5.30;;;5.90;99.90;;;;;;5015637;28;20216;-92
2022/03/08 13:19:05;;;;;;;23.17;6.73;;;6.00;99.90;;;;;;5014435;28;20212;-92
2022/03/08 13:21:37;;;;;;;16.90;6.07;;;6.00;99.90;;;;;;5015617;28;20676;-93
2022/03/08 13:24:14;;;;;;;22.40;6.50;;;5.90;99.90;;;;;;5026499;28;20204;-92
2022/03/08 13:26:54;;;;;;;18.17;7.03;;;6.00;99.90;;;;;;5035674;28;20287;-92
2022/03/08 13:29:27;;;;;;;15.93;6.80;;;6.00;99.90;;;;;;5044996;28;20196;-92
2022/03/08 13:32:00;;;;;;;14.50;6.67;;;5.90;99.90;;;;;;5036928;28;20213;-92
2022/03/08 13:34:32;;;;;;;17.97;6.87;;;5.90;99.90;;;;;;5035701;28;20263;-91
2022/03/08 13:37:03;;;;;;;13.93;6.70;;;5.90;99.90;;;;;;5035603;28;20227;-93
2022/03/08 13:39:34;;;;;;;14.50;7.00;;;5.90;99.90;;;;;;5036789;28;20232;-93
2022/03/08 13:42:08;;;;;;;16.07;7.57;;;5.90;99.90;;;;;;5047629;28;20216;-92
2022/03/08 13:44:55;;;;;;;20.87;7.97;;;6.00;99.90;;;;;;5055113;28;20217;-93
2022/03/08 13:47:26;;;;;;;18.23;6.93;;;6.00;99.90;;;;;;5043168;28;20230;-94
2022/03/08 13:50:01;;;;;;;19.20;6.80;;;5.90;99.90;;;;;;5037083;28;20220;-93
2022/03/08 13:52:32;;;;;;;19.10;7.07;;;5.90;99.90;;;;;;5036161;28;20227;-93
2022/03/08 13:55:02;;;;;;;20.43;7.50;;;5.90;99.90;;;;;;5035581;28;20273;-93
2022/03/08 13:57:34;;;;;;;17.10;7.10;;;5.90;99.90;;;;;;5027986;28;20241;-92